Time,TemperatureF,DewpointF,PressureIn,WindDirection,WindDirectionDegrees,WindSpeedMPH,WindSpeedGustMPH,Humidity,HourlyPrecipIn,Conditions,Clouds,dailyrainin,SoftwareType,DateUTC
2013-06-30 00:22:00,92.0,49.0,29.84,South,191,10.0,17.0,23,0.00,,,0.00,,2013-06-30 07:22:00,
2013-06-30 00:33:00,92.0,50.0,29.84,SSW,207,15.0,19.0,24,0.00,,,0.00,,2013-06-30 07:33:00,
2013-06-30 00:44:00,91.0,49.0,29.84,SSW,213,10.0,18.0,24,0.00,,,0.00,,2013-06-30 07:44:00,
2013-06-30 00:53:00,91.0,50.0,29.84,SW,225,15.0,20.0,25,0.00,,,0.00,,2013-06-30 07:53:00,
2013-06-30 01:02:00,91.0,49.0,29.84,SSW,209,13.0,22.0,24,0.00,,,0.00,,2013-06-30 08:02:00,
2013-06-30 01:11:00,91.0,49.0,29.84,SW,221,13.0,21.0,24,0.00,,,0.00,,2013-06-30 08:11:00,
2013-06-30 01:22:00,90.0,49.0,29.84,SW,215,12.0,20.0,25,0.00,,,0.00,,2013-06-30 08:22:00,
2013-06-30 01:33:00,89.0,50.0,29.83,SSW,213,12.0,16.0,26,0.00,,,0.00,,2013-06-30 08:33:00,
2013-06-30 01:42:00,89.0,50.0,29.83,SSW,207,13.0,17.0,26,0.00,,,0.00,,2013-06-30 08:42:00,
2013-06-30 01:53:00,89.0,50.0,29.83,South,190,13.0,19.0,26,0.00,,,0.00,,2013-06-30 08:53:00,
2013-06-30 02:01:00,89.0,50.0,29.83,South,180,18.0,23.0,26,0.00,,,0.00,,2013-06-30 09:01:00,
2013-06-30 02:11:00,90.0,50.0,29.83,SSW,195,17.0,23.0,26,0.00,,,0.00,,2013-06-30 09:11:00,
2013-06-30 02:23:00,90.0,49.0,29.83,SSW,199,17.0,22.0,25,0.00,,,0.00,,2013-06-30 09:23:00,
2013-06-30 02:33:00,90.0,49.0,29.83,SW,222,13.0,21.0,25,0.00,,,0.00,,2013-06-30 09:33:00,
2013-06-30 02:43:00,90.0,49.0,29.83,SW,226,13.0,20.0,25,0.00,,,0.00,,2013-06-30 09:43:00,
2013-06-30 02:52:00,90.0,49.0,29.83,SSW,212,13.0,18.0,25,0.00,,,0.00,,2013-06-30 09:52:00,
2013-06-30 03:02:00,89.0,50.0,29.83,SSW,206,15.0,19.0,26,0.00,,,0.00,,2013-06-30 10:02:00,
2013-06-30 03:11:00,88.0,49.0,29.83,SW,223,13.0,17.0,26,0.00,,,0.00,,2013-06-30 10:11:00,
2013-06-30 03:22:00,89.0,50.0,29.83,SSW,206,12.0,18.0,26,0.00,,,0.00,,2013-06-30 10:22:00,
2013-06-30 03:33:00,88.0,50.0,29.83,SSW,200,11.0,17.0,27,0.00,,,0.00,,2013-06-30 10:33:00,
2013-06-30 03:42:00,88.0,49.0,29.83,SSW,207,10.0,15.0,26,0.00,,,0.00,,2013-06-30 10:42:00,
2013-06-30 03:53:00,89.0,50.0,29.83,SW,222,8.0,13.0,26,0.00,,,0.00,,2013-06-30 10:53:00,
2013-06-30 04:02:00,89.0,50.0,29.83,SW,225,9.0,18.0,26,0.00,,,0.00,,2013-06-30 11:02:00,
2013-06-30 04:11:00,88.0,50.0,29.83,SW,219,12.0,18.0,27,0.00,,,0.00,,2013-06-30 11:11:00,
2013-06-30 04:22:00,89.0,50.0,29.83,SW,223,11.0,18.0,26,0.00,,,0.00,,2013-06-30 11:22:00,
2013-06-30 04:33:00,89.0,50.0,29.83,WSW,249,13.0,17.0,26,0.00,,,0.00,,2013-06-30 11:33:00,
2013-06-30 04:43:00,89.0,51.0,29.83,SW,228,13.0,17.0,27,0.00,,,0.00,,2013-06-30 11:43:00,
2013-06-30 04:53:00,88.0,50.0,29.83,WSW,244,8.0,17.0,27,0.00,,,0.00,,2013-06-30 11:53:00,
2013-06-30 05:01:00,87.0,50.0,29.84,SSW,210,8.0,13.0,28,0.00,,,0.00,,2013-06-30 12:01:00,
2013-06-30 05:11:00,87.0,50.0,29.83,SW,223,10.0,13.0,28,0.00,,,0.00,,2013-06-30 12:11:00,
2013-06-30 05:24:00,87.0,50.0,29.83,SW,227,12.0,15.0,28,0.00,,,0.00,,2013-06-30 12:24:00,
2013-06-30 05:33:00,87.0,50.0,29.83,SW,225,12.0,15.0,28,0.00,,,0.00,,2013-06-30 12:33:00,
2013-06-30 05:43:00,87.0,50.0,29.84,SW,233,9.0,14.0,28,0.00,,,0.00,,2013-06-30 12:43:00,
2013-06-30 05:52:00,86.0,50.0,29.84,SW,215,10.0,15.0,29,0.00,,,0.00,,2013-06-30 12:52:00,
2013-06-30 06:01:00,86.0,50.0,29.84,SSW,209,9.0,14.0,29,0.00,,,0.00,,2013-06-30 13:01:00,
2013-06-30 06:12:00,87.0,50.0,29.84,SSW,213,9.0,13.0,28,0.00,,,0.00,,2013-06-30 13:12:00,
2013-06-30 06:22:00,87.0,50.0,29.84,SSW,213,9.0,13.0,28,0.00,,,0.00,,2013-06-30 13:22:00,
2013-06-30 06:33:00,86.0,50.0,29.85,SW,233,12.0,16.0,29,0.00,,,0.00,,2013-06-30 13:33:00,
2013-06-30 07:52:00,91.0,50.0,29.86,SW,220,10.0,14.0,25,0.00,,,0.00,,2013-06-30 14:52:00,
2013-06-30 08:02:00,92.0,51.0,29.86,SW,223,8.0,14.0,25,0.00,,,0.00,,2013-06-30 15:02:00,
2013-06-30 08:12:00,93.0,51.0,29.86,SW,225,10.0,12.0,24,0.00,,,0.00,,2013-06-30 15:12:00,
2013-06-30 08:22:00,94.0,52.0,29.89,SW,229,9.0,14.0,24,0.00,,,0.00,,2013-06-30 15:22:00,
2013-06-30 08:34:00,94.0,51.0,29.89,SW,235,9.0,13.0,23,0.00,,,0.00,,2013-06-30 15:34:00,
2013-06-30 08:44:00,95.0,51.0,29.89,SW,225,7.0,12.0,23,0.00,,,0.00,,2013-06-30 15:44:00,
2013-06-30 08:52:00,96.0,52.0,29.89,SW,223,8.0,11.0,23,0.00,,,0.00,,2013-06-30 15:52:00,
2013-06-30 09:01:00,97.0,52.0,29.90,SW,225,6.0,11.0,22,0.00,,,0.00,,2013-06-30 16:01:00,
2013-06-30 09:11:00,98.0,51.0,29.90,WSW,240,2.0,10.0,21,0.00,,,0.00,,2013-06-30 16:11:00,
2013-06-30 09:21:00,99.0,51.0,29.90,WSW,242,3.0,7.0,20,0.00,,,0.00,,2013-06-30 16:21:00,
2013-06-30 09:34:00,99.0,51.0,29.90,WSW,242,2.0,6.0,20,0.00,,,0.00,,2013-06-30 16:34:00,
2013-06-30 10:43:00,105.0,50.0,29.88,NNE,21,2.0,6.0,16,0.00,,,0.00,,2013-06-30 17:43:00,
2013-06-30 10:52:00,105.0,50.0,29.88,NE,49,2.0,6.0,16,0.00,,,0.00,,2013-06-30 17:52:00,
2013-06-30 11:33:00,107.0,48.0,29.88,NE,37,2.0,6.0,14,0.00,,,0.00,,2013-06-30 18:33:00,
2013-06-30 11:43:00,108.0,48.0,29.87,NE,36,3.0,5.0,14,0.00,,,0.00,,2013-06-30 18:43:00,
2013-06-30 11:53:00,108.0,48.0,29.87,NE,53,0.0,4.0,14,0.00,,,0.00,,2013-06-30 18:53:00,
2013-06-30 12:11:00,110.0,48.0,29.86,NW,306,2.0,5.0,13,0.00,,,0.00,,2013-06-30 19:11:00,
2013-06-30 13:01:00,111.0,47.0,29.84,South,180,0.0,7.0,12,0.00,,,0.00,,2013-06-30 20:01:00,
2013-06-30 13:11:00,114.0,44.0,29.84,SSE,150,12.0,16.0,10,0.00,,,0.00,,2013-06-30 20:11:00,
2013-06-30 13:21:00,114.0,44.0,29.84,SE,142,9.0,13.0,10,0.00,,,0.00,,2013-06-30 20:21:00,
2013-06-30 13:34:00,114.0,44.0,29.83,SSE,157,4.0,12.0,10,0.00,,,0.00,,2013-06-30 20:34:00,
2013-06-30 14:11:00,114.0,41.0,29.82,South,185,14.0,21.0,9,0.00,,,0.00,,2013-06-30 21:11:00,
2013-06-30 14:22:00,114.0,41.0,29.82,SSE,166,15.0,20.0,9,0.00,,,0.00,,2013-06-30 21:22:00,
2013-06-30 14:33:00,115.0,42.0,29.82,SSW,209,12.0,19.0,9,0.00,,,0.00,,2013-06-30 21:33:00,
2013-06-30 23:43:00,96.0,43.0,29.82,SW,227,11.0,17.0,16,0.00,,,0.00,,2013-07-01 06:43:00,
2013-06-30 23:53:00,96.0,43.0,29.82,SW,227,11.0,17.0,16,0.00,,,0.00,,2013-07-01 06:53:00,